Time;durP1;ratioP1;P1;durP2;ratioP2;P2;SDS_P1;SDS_P2;PMS_P1;PMS_P2;Temp;Humidity;BMP_temperature;BMP_pressure;BME280_temperature;BME280_humidity;BME280_pressure;Samples;Min_cycle;Max_cycle;Signal;HPM_P1;HPM_P2
2023/11/02 00:02:03;;;;;;;3.80;1.60;;;;;;;19.20;91.19;98905.69;5020851;28;20025;-40
2023/11/02 00:04:28;;;;;;;2.78;1.42;;;;;;;19.18;91.29;98897.00;5009982;28;20273;-40
2023/11/02 00:06:55;;;;;;;6.05;2.08;;;;;;;19.17;91.25;98887.94;5009807;28;20030;-40
2023/11/02 00:09:31;;;;;;;2.67;1.45;;;;;;;19.16;91.57;98880.84;5011463;28;20036;-39
2023/11/02 00:12:02;;;;;;;4.20;2.20;;;;;;;19.16;91.62;98869.84;5006726;28;20508;-39
2023/11/02 00:14:34;;;;;;;3.63;1.65;;;;;;;19.15;91.29;98868.22;5010021;28;20036;-38
2023/11/02 00:17:00;;;;;;;3.35;1.70;;;;;;;19.13;91.80;98862.28;5004912;28;20481;-39
2023/11/02 00:19:30;;;;;;;3.53;1.75;;;;;;;19.12;91.73;98849.69;5011166;28;20048;-39
2023/11/02 00:22:08;;;;;;;3.60;1.60;;;;;;;19.12;92.07;98851.66;5010317;28;20104;-38
2023/11/02 00:24:38;;;;;;;5.60;1.83;;;;;;;19.12;91.97;98846.16;5013696;28;20656;-40
2023/11/02 00:27:04;;;;;;;3.25;1.70;;;;;;;19.11;92.16;98828.06;5006713;28;20029;-40
2023/11/02 00:29:30;;;;;;;3.40;1.95;;;;;;;19.10;91.96;98812.72;5005122;28;20021;-40
2023/11/02 00:31:55;;;;;;;5.05;1.85;;;;;;;19.08;91.88;98788.34;5011670;28;20501;-40
2023/11/02 00:34:21;;;;;;;3.25;1.52;;;;;;;19.06;91.97;98779.63;5012086;28;20060;-40
2023/11/02 00:36:47;;;;;;;6.07;1.73;;;;;;;19.04;92.40;98774.50;5008282;28;20076;-40
2023/11/02 00:39:12;;;;;;;5.07;1.73;;;;;;;19.03;92.17;98761.91;5018759;28;20030;-39
2023/11/02 00:41:38;;;;;;;4.45;1.80;;;;;;;19.02;92.36;98756.75;5009587;28;20032;-41
2023/11/02 00:44:04;;;;;;;4.00;1.58;;;;;;;19.00;92.54;98748.81;5004955;28;20592;-38
2023/11/02 00:46:32;;;;;;;8.88;1.70;;;;;;;18.98;92.27;98745.63;5011940;28;20033;-39
2023/11/02 00:48:57;;;;;;;3.03;1.60;;;;;;;18.98;92.09;98745.63;5011326;28;20021;-38
2023/11/02 00:51:29;;;;;;;5.38;1.90;;;;;;;18.97;92.52;98743.19;5005681;28;20087;-39
2023/11/02 00:56:49;;;;;;;4.57;1.60;;;;;;;18.92;92.77;98731.28;4984501;23;20712;-42
2023/11/02 01:02:40;;;;;;;4.68;1.80;;;;;;;18.87;92.55;98686.72;4985363;23;20072;31
2023/11/02 01:05:21;;;;;;;4.68;1.48;;;;;;;18.89;92.70;98678.97;4981124;28;20046;-40
2023/11/02 01:07:47;;;;;;;3.10;1.60;;;;;;;18.86;92.82;98672.22;4977615;28;20459;-40
2023/11/02 01:10:13;;;;;;;6.10;2.75;;;;;;;18.87;93.35;98667.50;4980273;28;20037;-40
2023/11/02 01:12:39;;;;;;;2.45;1.55;;;;;;;18.87;93.75;98659.28;4981265;28;20034;-41
2023/11/02 01:15:10;;;;;;;4.57;2.05;;;;;;;18.88;93.31;98656.22;4981134;28;20032;-41
2023/11/02 01:17:38;;;;;;;4.75;1.63;;;;;;;18.86;92.90;98647.50;4983175;28;20039;-40
2023/11/02 01:20:05;;;;;;;5.90;1.70;;;;;;;18.85;93.14;98625.91;4982292;28;20015;-40
2023/11/02 01:22:32;;;;;;;3.50;1.73;;;;;;;18.85;93.07;98617.66;4985998;28;20060;-40
2023/11/02 01:25:03;;;;;;;2.35;1.50;;;;;;;18.83;92.96;98607.00;4984757;28;20117;-41
2023/11/02 01:27:29;;;;;;;2.92;1.50;;;;;;;18.83;93.38;98592.50;4977920;28;20121;-40
2023/11/02 01:29:55;;;;;;;2.97;1.50;;;;;;;18.81;92.92;98590.09;4984498;28;20041;-41
2023/11/02 01:32:21;;;;;;;2.97;1.30;;;;;;;18.80;93.01;98572.00;4985332;28;20478;-41
2023/11/02 01:34:46;;;;;;;3.45;1.40;;;;;;;18.79;93.18;98558.63;4985716;28;20065;-41
2023/11/02 01:37:12;;;;;;;4.55;1.75;;;;;;;18.77;93.03;98548.78;4985074;28;20054;-41
2023/11/02 01:40:01;;;;;;;5.47;2.03;;;;;;;18.76;93.76;98538.13;4986324;28;20522;-41
2023/11/02 01:42:37;;;;;;;5.70;1.85;;;;;;;18.74;93.49;98513.78;4969493;28;20042;-41
2023/11/02 01:45:12;;;;;;;3.58;1.52;;;;;;;18.75;94.12;98487.16;5004285;28;20053;-41
2023/11/02 01:48:02;;;;;;;4.28;1.77;;;;;;;18.75;94.09;98455.03;4988194;28;20057;-38
2023/11/02 01:50:39;;;;;;;3.28;1.70;;;;;;;18.74;93.82;98453.41;4985484;28;20126;-39
2023/11/02 01:53:54;;;;;;;4.82;1.70;;;;;;;18.74;93.73;98434.22;4984127;28;20053;-39
2023/11/02 01:56:51;;;;;;;4.68;2.00;;;;;;;18.73;93.55;98432.59;4940995;28;20069;-41
2023/11/02 01:59:27;;;;;;;6.68;1.85;;;;;;;18.73;93.93;98413.41;4983306;28;20054;-40
2023/11/02 02:02:14;;;;;;;5.20;1.50;;;;;;;18.73;93.67;98390.66;4978655;28;20729;-41
2023/11/02 02:04:54;;;;;;;4.72;1.60;;;;;;;18.71;94.42;98374.53;4981916;28;20050;-41
2023/11/02 02:07:34;;;;;;;5.88;1.92;;;;;;;18.71;94.39;98373.72;4996307;28;20043;-41
2023/11/02 02:10:15;;;;;;;4.05;1.65;;;;;;;18.72;94.35;98376.16;4981174;28;20046;-41
2023/11/02 02:12:56;;;;;;;2.80;1.23;;;;;;;18.72;94.05;98358.88;4984628;28;20514;-41
2023/11/02 02:15:26;;;;;;;4.72;1.50;;;;;;;18.71;94.49;98347.09;4985536;28;20224;-41
2023/11/02 02:17:59;;;;;;;6.07;1.42;;;;;;;18.70;93.96;98353.72;4983034;28;20390;-41
2023/11/02 02:20:35;;;;;;;4.07;1.40;;;;;;;18.68;93.95;98357.97;4975734;28;20031;-41
2023/11/02 02:23:28;;;;;;;5.28;1.85;;;;;;;18.68;94.38;98338.75;4973632;28;20033;-39
2023/11/02 02:26:31;;;;;;;4.68;1.88;;;;;;;18.66;94.65;98328.09;4975578;28;20061;-41
2023/11/02 02:29:21;;;;;;;5.88;1.77;;;;;;;18.67;94.79;98305.03;4983620;28;20032;-39
2023/11/02 02:32:27;;;;;;;4.60;1.90;;;;;;;18.66;93.67;98284.22;4981135;28;20500;-41
2023/11/02 02:35:50;;;;;;;3.95;1.50;;;;;;;18.66;94.72;98269.72;4979541;28;20503;-40
2023/11/02 02:38:30;;;;;;;5.07;1.50;;;;;;;18.65;94.97;98249.72;4928189;29;20075;-40
2023/11/02 02:41:17;;;;;;;5.25;1.60;;;;;;;18.64;94.82;98245.38;4923144;29;20554;-40
2023/11/02 02:43:43;;;;;;;3.67;1.40;;;;;;;18.65;94.73;98237.94;5001637;28;20042;-41
2023/11/02 02:46:10;;;;;;;5.25;1.50;;;;;;;18.64;94.65;98230.84;4985599;28;20117;-40
2023/11/02 02:48:36;;;;;;;4.20;1.67;;;;;;;18.64;94.76;98234.41;4982526;28;20041;-40
2023/11/02 02:51:03;;;;;;;4.60;1.58;;;;;;;18.63;94.57;98224.56;4980801;28;20030;-40
2023/11/02 02:53:31;;;;;;;3.97;1.88;;;;;;;18.63;94.07;98221.81;4978361;28;20034;-40
2023/11/02 02:56:04;;;;;;;3.80;1.65;;;;;;;18.62;94.28;98208.44;4989679;28;20030;-40
2023/11/02 02:58:29;;;;;;;4.28;1.50;;;;;;;18.62;94.29;98186.50;5011397;28;20217;-40
2023/11/02 03:00:55;;;;;;;5.32;1.65;;;;;;;18.60;94.33;98181.34;4984641;28;20041;-40
2023/11/02 03:03:23;;;;;;;5.32;1.85;;;;;;;18.60;94.59;98170.38;4988543;28;20133;-41
2023/11/02 03:05:49;;;;;;;4.13;1.40;;;;;;;18.58;94.28;98156.22;4988101;28;20041;-41
2023/11/02 03:08:14;;;;;;;3.85;1.48;;;;;;;18.59;94.94;98146.84;4988440;28;20034;-40
2023/11/02 03:10:41;;;;;;;4.68;1.45;;;;;;;18.60;95.24;98126.47;4986408;28;20061;-41
2023/11/02 03:13:07;;;;;;;3.33;1.20;;;;;;;18.58;95.14;98107.63;4984975;28;20030;-39
2023/11/02 03:15:34;;;;;;;3.65;1.60;;;;;;;18.59;94.57;98092.00;4987193;28;20407;-39
2023/11/02 03:18:03;;;;;;;2.95;1.92;;;;;;;18.57;95.08;98075.88;4985925;28;20037;-39
2023/11/02 03:20:28;;;;;;;3.72;1.52;;;;;;;18.56;94.23;98054.28;4986668;28;20102;-39
2023/11/02 03:23:04;;;;;;;2.80;1.40;;;;;;;18.57;94.81;98059.41;4988268;28;20478;-39
2023/11/02 03:25:47;;;;;;;4.68;1.52;;;;;;;18.57;94.59;98066.84;4976314;28;20125;-38
2023/11/02 03:28:23;;;;;;;6.32;1.50;;;;;;;18.57;94.76;98077.81;5005178;28;20105;-39
2023/11/02 03:30:56;;;;;;;5.03;1.55;;;;;;;18.56;94.62;98051.53;4987268;28;20037;-39
2023/11/02 03:33:44;;;;;;;5.80;1.42;;;;;;;18.56;94.47;98043.31;4987488;28;20041;-39
2023/11/02 03:36:17;;;;;;;5.90;1.33;;;;;;;18.55;94.81;98019.75;4985694;28;20903;-39
2023/11/02 03:38:52;;;;;;;4.63;1.50;;;;;;;18.55;94.85;97973.13;4984627;28;20026;-39
2023/11/02 03:41:48;;;;;;;3.15;1.30;;;;;;;18.55;95.01;97960.22;4987913;28;20251;-40
2023/11/02 03:44:25;;;;;;;5.63;2.08;;;;;;;18.54;95.35;97961.38;4985493;28;20031;-38
2023/11/02 03:47:12;;;;;;;5.22;1.75;;;;;;;18.54;94.99;97939.44;4987793;28;21056;-40
2023/11/02 03:49:37;;;;;;;4.35;1.55;;;;;;;18.54;94.25;97936.69;4983048;28;20038;-39
2023/11/02 03:52:14;;;;;;;5.57;1.42;;;;;;;18.52;94.93;97938.97;4986110;28;20033;-39
2023/11/02 03:54:59;;;;;;;3.22;1.45;;;;;;;18.52;94.87;97933.50;4987715;28;20037;-39
2023/11/02 03:57:38;;;;;;;4.13;1.52;;;;;;;18.52;94.77;97908.03;4986017;28;20088;-41
2023/11/02 04:00:09;;;;;;;6.50;1.58;;;;;;;18.52;94.63;97902.53;4983136;28;20038;-39
2023/11/02 04:02:39;;;;;;;3.97;1.50;;;;;;;18.52;95.04;97884.13;4977664;28;20041;-40
2023/11/02 04:05:10;;;;;;;4.00;1.50;;;;;;;18.52;94.56;97847.69;4985803;28;20050;-39
2023/11/02 04:07:42;;;;;;;11.30;1.77;;;;;;;18.52;94.58;97817.53;4987746;28;20034;-39
2023/11/02 04:10:11;;;;;;;3.58;1.42;;;;;;;18.51;94.70;97808.47;4986835;28;20672;-39
2023/11/02 04:13:04;;;;;;;4.63;1.60;;;;;;;18.51;94.61;97805.75;4986843;28;20037;-40
2023/11/02 04:15:29;;;;;;;4.82;1.40;;;;;;;18.50;94.47;97790.44;4986334;28;20058;-40
2023/11/02 04:17:55;;;;;;;2.92;1.58;;;;;;;18.50;94.80;97795.91;4987242;28;20030;-39
2023/11/02 04:20:20;;;;;;;7.88;1.65;;;;;;;18.50;94.59;97795.13;4985521;28;20487;-38
2023/11/02 04:22:45;;;;;;;4.32;1.60;;;;;;;18.49;94.77;97769.66;4987680;28;20057;-38
2023/11/02 04:25:11;;;;;;;7.18;1.58;;;;;;;18.49;94.62;97758.69;4983727;28;20027;-39
2023/11/02 04:27:37;;;;;;;4.35;1.75;;;;;;;18.50;94.44;97756.75;4980644;28;20092;-39
2023/11/02 04:30:02;;;;;;;3.10;1.50;;;;;;;18.49;94.28;97758.69;4976515;28;20475;-39
2023/11/02 04:32:28;;;;;;;3.00;1.40;;;;;;;18.49;93.98;97753.22;4993941;28;20030;-39
2023/11/02 04:34:53;;;;;;;4.10;1.40;;;;;;;18.48;93.45;97746.13;4978811;28;20130;-39
2023/11/02 04:37:19;;;;;;;3.90;1.48;;;;;;;18.47;94.21;97738.25;4981277;28;20432;-39
2023/11/02 04:39:45;;;;;;;4.55;1.52;;;;;;;18.46;93.93;97734.72;4985090;28;20022;-39
2023/11/02 04:42:11;;;;;;;4.15;1.38;;;;;;;18.47;93.71;97733.56;4986974;28;20450;-39
2023/11/02 04:44:37;;;;;;;5.25;2.05;;;;;;;18.46;93.87;97714.72;4983615;28;20037;-39
2023/11/02 04:47:03;;;;;;;2.58;1.23;;;;;;;18.46;93.26;97704.56;4987157;28;20439;-41
2023/11/02 04:49:28;;;;;;;3.08;1.30;;;;;;;18.44;93.48;97707.66;4984394;28;20121;-41
2023/11/02 04:51:59;;;;;;;5.85;1.80;;;;;;;18.46;93.65;97695.53;4987232;28;20547;-41
2023/11/02 04:54:26;;;;;;;4.82;1.58;;;;;;;18.44;93.25;97687.66;4979463;28;20493;-41
2023/11/02 04:56:51;;;;;;;3.13;1.90;;;;;;;18.43;93.12;97683.34;4986340;28;20060;-40
2023/11/02 04:59:16;;;;;;;4.53;1.50;;;;;;;18.42;93.23;97673.53;4985985;28;20030;-39
2023/11/02 05:01:42;;;;;;;5.82;1.50;;;;;;;18.41;93.20;97653.50;4983507;28;20554;-39
2023/11/02 05:04:07;;;;;;;6.15;1.67;;;;;;;18.43;93.34;97650.44;4984829;28;20054;-38
2023/11/02 05:06:32;;;;;;;4.20;1.60;;;;;;;18.41;93.17;97639.03;4984881;28;20034;-39
2023/11/02 05:09:02;;;;;;;4.18;1.35;;;;;;;18.41;92.96;97653.50;4985557;28;20038;-39
2023/11/02 05:11:27;;;;;;;3.78;1.65;;;;;;;18.40;92.78;97615.50;4986933;28;20031;-39
2023/11/02 05:13:52;;;;;;;3.13;1.55;;;;;;;18.39;92.69;97594.69;4980269;28;20026;-38
2023/11/02 05:16:18;;;;;;;3.72;1.20;;;;;;;18.40;93.02;97590.81;4978833;28;20094;-38
2023/11/02 05:18:44;;;;;;;3.90;1.40;;;;;;;18.38;92.77;97588.44;4985390;28;20378;-41
2023/11/02 05:21:09;;;;;;;3.13;1.45;;;;;;;18.38;92.54;97591.19;4982603;28;20399;-41
2023/11/02 05:23:34;;;;;;;1.98;1.20;;;;;;;18.36;92.21;97563.31;4983882;28;20026;-41
2023/11/02 05:26:04;;;;;;;4.00;1.40;;;;;;;18.36;92.29;97565.28;4987417;28;20482;-41
2023/11/02 05:28:31;;;;;;;2.90;1.15;;;;;;;18.36;92.54;97576.25;4984370;28;20888;-41
2023/11/02 05:30:57;;;;;;;2.63;1.27;;;;;;;18.34;92.68;97554.66;4979690;28;20487;-38
2023/11/02 05:33:22;;;;;;;2.47;1.20;;;;;;;18.34;92.86;97534.66;5010212;28;20032;-39
2023/11/02 05:35:47;;;;;;;4.13;1.40;;;;;;;18.35;92.98;97539.00;4985981;28;20039;-39
2023/11/02 05:38:13;;;;;;;3.28;1.63;;;;;;;18.34;93.27;97532.72;4985713;28;20398;-39
2023/11/02 05:40:38;;;;;;;4.22;1.40;;;;;;;18.33;92.89;97514.69;4986094;28;20445;-38
2023/11/02 05:43:04;;;;;;;1.88;1.25;;;;;;;18.33;92.77;97511.97;4985370;28;20030;-38
2023/11/02 05:45:29;;;;;;;2.25;1.13;;;;;;;18.32;92.78;97493.91;4984912;28;20498;-39
2023/11/02 05:47:54;;;;;;;4.82;1.40;;;;;;;18.31;92.85;97500.56;5016629;28;20038;-39
2023/11/02 05:50:20;;;;;;;4.47;1.45;;;;;;;18.28;93.17;97504.81;4986426;28;20037;-39
2023/11/02 05:52:48;;;;;;;3.85;1.38;;;;;;;18.28;93.22;97482.88;4984968;28;20450;-40
2023/11/02 05:55:14;;;;;;;3.47;1.25;;;;;;;18.28;93.73;97469.16;4985716;28;20498;-47
2023/11/02 05:57:40;;;;;;;5.80;1.40;;;;;;;18.33;94.67;97457.13;4999061;28;20037;-40
2023/11/02 06:00:10;;;;;;;8.98;1.73;;;;;;;18.38;94.72;97453.28;4985129;28;20033;-46
2023/11/02 06:02:35;;;;;;;9.35;1.40;;;;;;;18.44;95.15;97449.09;4973646;28;20022;-44
2023/11/02 06:05:01;;;;;;;3.00;1.25;;;;;;;18.50;94.96;97433.94;4986056;28;20068;-46
2023/11/02 06:07:26;;;;;;;5.47;1.35;;;;;;;18.55;94.71;97439.16;4977916;28;20041;-43
2023/11/02 06:09:52;;;;;;;4.60;1.20;;;;;;;18.60;94.78;97416.91;4986689;28;20033;-42
2023/11/02 06:12:17;;;;;;;4.25;1.23;;;;;;;18.64;95.00;97408.75;4984931;28;20042;-46
2023/11/02 06:14:43;;;;;;;4.15;1.10;;;;;;;18.73;94.84;97417.53;4980535;28;20058;-44
2023/11/02 06:17:09;;;;;;;1.77;0.90;;;;;;;18.77;94.32;97409.34;4981650;28;20125;-47
2023/11/02 06:19:35;;;;;;;3.88;1.33;;;;;;;18.81;94.08;97395.72;4996123;28;20030;-47
2023/11/02 06:22:00;;;;;;;7.05;1.45;;;;;;;18.83;94.13;97396.91;5017404;28;20038;-41
2023/11/02 06:24:25;;;;;;;5.63;1.20;;;;;;;18.85;93.99;97393.84;4998432;28;20070;-44
2023/11/02 06:26:51;;;;;;;5.65;1.42;;;;;;;18.86;93.87;97387.16;4985902;28;20495;-43
2023/11/02 06:29:16;;;;;;;5.20;1.40;;;;;;;18.89;93.77;97373.50;4987113;28;20117;-43
2023/11/02 06:31:41;;;;;;;2.83;1.05;;;;;;;18.95;93.26;97382.25;4983055;28;20030;-41
2023/11/02 06:34:07;;;;;;;6.28;1.30;;;;;;;18.99;93.30;97358.41;4986389;28;20418;-41
2023/11/02 06:36:32;;;;;;;3.83;1.40;;;;;;;19.07;92.95;97354.63;4986577;28;20034;-41
2023/11/02 06:38:58;;;;;;;2.65;1.08;;;;;;;19.14;92.83;97323.78;4988428;28;20065;-41
2023/11/02 06:41:24;;;;;;;5.18;1.27;;;;;;;19.22;92.07;97308.97;4983499;28;20121;-41
2023/11/02 06:43:50;;;;;;;6.15;1.42;;;;;;;19.32;92.12;97325.97;4989836;28;20104;-41
2023/11/02 06:46:15;;;;;;;3.45;1.30;;;;;;;19.40;91.51;97322.19;4989786;28;20377;-41
2023/11/02 06:48:41;;;;;;;1.88;1.10;;;;;;;19.50;91.64;97307.00;4989854;28;20030;-41
2023/11/02 06:51:07;;;;;;;3.25;1.10;;;;;;;19.59;91.14;97315.75;4988172;28;20034;-42
2023/11/02 06:53:36;;;;;;;3.45;1.20;;;;;;;19.68;90.78;97294.28;4989551;28;20030;-44
2023/11/02 06:56:01;;;;;;;1.60;0.98;;;;;;;19.78;90.37;97300.28;4989290;28;20426;-41
2023/11/02 06:58:27;;;;;;;1.60;1.00;;;;;;;19.89;90.15;97298.50;4984884;28;20096;-41
2023/11/02 07:00:56;;;;;;;1.98;1.15;;;;;;;19.99;89.96;97292.31;4985455;28;20027;-41
2023/11/02 07:03:22;;;;;;;2.38;1.00;;;;;;;20.13;89.60;97294.41;4987880;28;20054;-41
2023/11/02 07:05:47;;;;;;;1.52;1.05;;;;;;;20.25;89.49;97287.88;4986551;28;20027;-41
2023/11/02 07:08:13;;;;;;;1.80;1.20;;;;;;;20.36;88.75;97275.00;4990478;28;20026;-42
2023/11/02 07:10:38;;;;;;;3.10;1.20;;;;;;;20.47;88.48;97264.13;4988129;28;20403;-41
2023/11/02 07:13:09;;;;;;;2.13;1.10;;;;;;;20.57;87.81;97281.09;4988887;28;20069;-41
2023/11/02 07:15:34;;;;;;;1.40;0.98;;;;;;;20.65;87.50;97267.03;4988742;28;20473;-41
2023/11/02 07:17:59;;;;;;;5.65;1.10;;;;;;;20.75;87.31;97275.78;4988855;28;20083;-40
2023/11/02 07:20:25;;;;;;;2.03;1.17;;;;;;;20.78;87.02;97256.53;4989438;28;20087;-41
2023/11/02 07:22:50;;;;;;;1.63;1.02;;;;;;;20.81;87.04;97260.50;4989213;28;20088;-40
2023/11/02 07:25:16;;;;;;;2.35;1.20;;;;;;;20.80;86.98;97245.16;4988963;28;20104;-41
2023/11/02 07:27:41;;;;;;;2.10;1.40;;;;;;;20.78;86.80;97245.53;4989389;28;20038;-41
2023/11/02 07:30:07;;;;;;;1.80;0.93;;;;;;;20.74;86.92;97222.69;4987961;28;20048;-41
2023/11/02 07:32:32;;;;;;;3.50;1.10;;;;;;;20.70;87.27;97230.13;4982395;28;20522;-41
2023/11/02 07:34:58;;;;;;;2.13;0.95;;;;;;;20.66;87.33;97227.34;4988363;28;20033;-41
2023/11/02 07:37:23;;;;;;;1.67;1.10;;;;;;;20.62;88.01;97232.00;4988965;28;20481;-41
2023/11/02 07:39:48;;;;;;;1.45;1.02;;;;;;;20.58;87.61;97224.91;4987781;28;20034;-41
2023/11/02 07:42:14;;;;;;;2.80;1.33;;;;;;;20.55;87.58;97206.41;4985223;28;20033;-41
2023/11/02 07:44:39;;;;;;;1.90;1.02;;;;;;;20.51;87.91;97187.13;4988139;28;20112;-42
2023/11/02 07:47:05;;;;;;;1.70;1.02;;;;;;;20.48;88.24;97191.44;4988752;28;20098;-42
2023/11/02 07:49:30;;;;;;;1.48;1.00;;;;;;;20.46;88.36;97204.00;4987486;28;20066;-42
2023/11/02 07:51:55;;;;;;;2.22;1.30;;;;;;;20.43;88.25;97202.00;5003556;28;20088;-42
2023/11/02 07:54:21;;;;;;;1.65;1.17;;;;;;;20.41;88.35;97172.13;4988153;28;20030;-42
2023/11/02 07:56:46;;;;;;;2.13;1.05;;;;;;;20.38;88.57;97166.59;4988475;28;20026;-42
2023/11/02 07:59:12;;;;;;;3.88;1.30;;;;;;;20.35;88.58;97159.91;4989575;28;20041;-41
2023/11/02 08:01:38;;;;;;;1.42;0.98;;;;;;;20.33;88.72;97162.25;5013059;28;20030;-42
2023/11/02 08:04:04;;;;;;;2.15;1.17;;;;;;;20.30;88.58;97161.03;4987662;28;20046;-42
2023/11/02 08:06:32;;;;;;;1.60;1.30;;;;;;;20.26;88.88;97157.47;4987815;28;20053;-43
2023/11/02 08:08:57;;;;;;;1.80;0.95;;;;;;;20.24;88.81;97151.56;4986466;28;20019;-41
2023/11/02 08:11:23;;;;;;;3.50;1.20;;;;;;;20.20;88.88;97148.00;4988686;28;20391;-41
2023/11/02 08:13:50;;;;;;;3.85;1.23;;;;;;;20.17;89.31;97154.25;4987490;28;20042;-42
2023/11/02 08:16:20;;;;;;;2.85;1.20;;;;;;;20.13;89.47;97143.22;4987800;28;20106;-42
2023/11/02 08:18:46;;;;;;;2.85;1.30;;;;;;;20.10;89.31;97138.50;4983028;28;20026;-42
2023/11/02 08:21:11;;;;;;;3.65;1.20;;;;;;;20.07;89.62;97136.50;4987289;28;20033;-42
2023/11/02 08:23:36;;;;;;;2.17;1.00;;;;;;;20.04;89.68;97124.31;4987385;28;20441;-42
2023/11/02 08:26:02;;;;;;;3.45;1.20;;;;;;;20.00;89.43;97130.94;4988245;28;20143;-42
2023/11/02 08:28:27;;;;;;;3.63;1.40;;;;;;;19.97;89.65;97101.50;4985783;28;20026;-43
2023/11/02 08:30:52;;;;;;;1.88;1.20;;;;;;;19.95;89.91;97101.06;4987279;28;20032;-42
2023/11/02 08:33:18;;;;;;;1.58;1.02;;;;;;;19.92;89.79;97086.13;4986452;28;20038;-41
2023/11/02 08:35:43;;;;;;;4.38;1.27;;;;;;;19.89;89.83;97095.16;5013595;28;20109;-41
2023/11/02 08:38:09;;;;;;;3.95;1.25;;;;;;;19.87;90.06;97079.03;4988198;28;20438;-41
2023/11/02 08:40:35;;;;;;;2.13;1.30;;;;;;;19.85;89.67;97080.56;4983466;28;20576;-41
2023/11/02 08:43:02;;;;;;;7.70;1.40;;;;;;;19.82;89.23;97067.59;4983083;28;20031;-43
2023/11/02 08:45:28;;;;;;;6.03;1.50;;;;;;;19.80;89.60;97062.44;4987009;28;20026;-41
2023/11/02 08:47:53;;;;;;;4.90;1.45;;;;;;;19.78;89.37;97064.00;4986011;28;20033;-41
2023/11/02 08:50:19;;;;;;;5.43;1.52;;;;;;;19.76;89.31;97055.38;4988707;28;20534;-41
2023/11/02 08:52:44;;;;;;;6.90;1.63;;;;;;;19.73;88.86;97051.44;4985561;28;20030;-41
2023/11/02 08:55:09;;;;;;;4.78;1.73;;;;;;;19.68;88.91;97044.31;4988162;28;20029;-43
2023/11/02 08:57:35;;;;;;;2.88;1.40;;;;;;;19.65;88.67;97042.31;4980170;28;20027;-42
2023/11/02 09:00:01;;;;;;;6.18;1.85;;;;;;;19.63;88.45;97036.44;4982740;28;20030;-41
2023/11/02 09:02:26;;;;;;;3.60;1.60;;;;;;;19.60;88.42;97039.16;4975289;28;20354;-42
2023/11/02 09:04:52;;;;;;;4.40;1.63;;;;;;;19.58;89.27;97035.97;4986071;28;20057;-42
2023/11/02 09:07:18;;;;;;;4.18;1.55;;;;;;;19.53;89.11;97037.09;4986498;28;20081;-43
2023/11/02 09:09:44;;;;;;;5.72;1.70;;;;;;;19.51;89.29;97042.19;5001110;28;20067;-42
2023/11/02 09:12:10;;;;;;;6.32;1.83;;;;;;;19.48;89.51;97026.47;4985492;28;20046;-42
2023/11/02 09:14:35;;;;;;;3.75;1.70;;;;;;;19.45;89.56;97038.19;5012285;28;20069;-42
2023/11/02 09:17:01;;;;;;;8.50;2.30;;;;;;;19.41;89.33;97027.19;4986970;28;20033;-42
2023/11/02 09:19:26;;;;;;;11.50;2.50;;;;;;;19.39;90.12;97029.53;4986140;28;20129;-42
2023/11/02 09:21:52;;;;;;;6.97;1.85;;;;;;;19.36;89.82;97020.09;4980917;28;20052;-41
2023/11/02 09:24:17;;;;;;;6.10;1.88;;;;;;;19.33;89.63;97031.81;4981155;28;20030;-41
2023/11/02 09:26:43;;;;;;;5.00;1.80;;;;;;;19.32;90.15;97027.50;4982880;28;20026;-41
2023/11/02 09:29:08;;;;;;;5.22;1.88;;;;;;;19.28;89.90;97012.97;4980269;28;20379;-42
2023/11/02 09:31:34;;;;;;;5.25;1.95;;;;;;;19.26;89.80;97012.53;4982084;28;20123;-42
2023/11/02 09:34:02;;;;;;;5.25;1.65;;;;;;;19.24;90.35;97025.88;4986143;28;20409;-41
2023/11/02 09:36:29;;;;;;;5.65;1.65;;;;;;;19.21;90.46;97024.66;4981672;28;20033;-42
2023/11/02 09:38:59;;;;;;;5.35;1.65;;;;;;;19.20;90.21;97030.50;4986419;28;20023;-43
2023/11/02 09:41:26;;;;;;;4.95;1.60;;;;;;;19.18;90.00;97039.13;4982018;28;20458;-43
2023/11/02 09:43:52;;;;;;;6.10;1.80;;;;;;;19.16;90.59;97007.75;4980443;28;20050;-43
2023/11/02 09:46:19;;;;;;;4.78;1.85;;;;;;;19.14;90.58;97024.59;5012780;28;20030;-43
2023/11/02 09:48:44;;;;;;;5.13;1.80;;;;;;;19.12;90.91;97017.91;5017695;28;20040;-41
2023/11/02 09:51:11;;;;;;;11.70;2.33;;;;;;;19.10;91.68;97018.25;4985473;28;20022;-43
2023/11/02 09:53:37;;;;;;;7.22;1.77;;;;;;;19.11;92.16;97014.34;4980570;28;20027;-42
2023/11/02 09:56:03;;;;;;;5.20;1.83;;;;;;;19.11;92.18;97032.78;4985639;28;20181;-42
2023/11/02 09:58:29;;;;;;;7.47;1.80;;;;;;;19.10;92.41;97029.25;4977918;28;20042;-43
2023/11/02 10:00:55;;;;;;;9.30;2.22;;;;;;;19.08;92.09;97029.63;4984395;28;20030;-44
2023/11/02 10:03:20;;;;;;;6.32;2.05;;;;;;;19.09;92.51;97027.66;4978361;28;20100;-42
2023/11/02 10:05:46;;;;;;;11.02;2.05;;;;;;;19.07;92.48;97019.03;4986198;28;20473;-44
2023/11/02 10:08:12;;;;;;;5.90;2.10;;;;;;;19.03;91.97;96997.03;4980950;28;20113;-43
2023/11/02 10:10:38;;;;;;;7.53;2.10;;;;;;;19.06;92.18;96992.75;4988232;28;20545;-43
2023/11/02 10:13:03;;;;;;;7.13;2.20;;;;;;;19.04;91.91;96979.41;4987968;28;20026;-42
2023/11/02 10:15:30;;;;;;;12.90;2.35;;;;;;;19.03;92.24;96991.56;4988310;28;20068;-43
2023/11/02 10:17:55;;;;;;;14.25;3.13;;;;;;;19.02;92.60;96979.00;4984926;28;20026;-45
2023/11/02 10:20:21;;;;;;;20.42;2.63;;;;;;;19.04;93.44;96993.13;4988183;28;20075;-45
2023/11/02 10:23:00;;;;;;;14.35;2.30;;;;;;;19.07;94.80;96989.63;4989657;28;20394;-43
2023/11/02 10:25:28;;;;;;;16.58;2.35;;;;;;;19.09;95.06;96989.22;4983803;28;20122;-45
2023/11/02 10:27:53;;;;;;;15.60;3.00;;;;;;;19.13;94.92;97012.03;4986438;28;20113;-47
2023/11/02 10:30:19;;;;;;;15.43;2.20;;;;;;;19.15;95.01;97009.69;4986349;28;20514;-44
2023/11/02 10:32:46;;;;;;;12.02;2.30;;;;;;;19.19;95.24;96985.00;4988103;28;20029;-43
2023/11/02 10:35:11;;;;;;;9.27;2.15;;;;;;;19.21;95.73;97024.66;4987004;28;20086;-45
2023/11/02 10:37:37;;;;;;;18.10;2.20;;;;;;;19.23;94.97;96989.38;4986319;28;20109;-47
2023/11/02 10:40:04;;;;;;;11.45;1.80;;;;;;;19.28;94.93;97015.69;4988657;28;20483;-45
2023/11/02 10:42:30;;;;;;;12.00;2.05;;;;;;;19.32;95.01;96986.31;4988691;28;20222;-40
2023/11/02 10:44:57;;;;;;;12.30;2.47;;;;;;;19.34;94.68;96975.75;4983740;28;20060;-44
2023/11/02 10:47:30;;;;;;;12.43;2.20;;;;;;;19.36;94.25;96967.94;4990224;28;20030;-46
2023/11/02 10:49:57;;;;;;;10.32;2.00;;;;;;;19.36;93.59;96962.44;4988146;28;20021;-47
2023/11/02 10:52:33;;;;;;;18.15;3.30;;;;;;;19.34;93.88;96966.75;4989603;28;20034;-47
2023/11/02 10:55:31;;;;;;;17.27;2.35;;;;;;;19.33;93.25;96956.94;4988825;28;20068;-48
2023/11/02 10:58:00;;;;;;;12.82;2.38;;;;;;;19.29;92.45;96950.59;4981944;28;20431;-48
2023/11/02 11:00:26;;;;;;;9.07;1.98;;;;;;;19.26;92.01;96934.91;4984145;28;20027;-47
2023/11/02 11:02:52;;;;;;;11.75;2.30;;;;;;;19.22;91.73;96951.34;4979030;28;20030;-49
2023/11/02 11:05:20;;;;;;;12.75;3.00;;;;;;;19.18;91.56;96940.31;4986659;28;20030;-48
2023/11/02 11:07:46;;;;;;;11.93;2.28;;;;;;;19.15;90.76;96924.59;4985091;28;20049;-51
2023/11/02 11:10:13;;;;;;;12.73;3.30;;;;;;;19.11;90.66;96917.53;4989106;28;20053;-50
2023/11/02 11:12:42;;;;;;;18.52;3.22;;;;;;;19.09;90.70;96939.84;4976726;28;20038;-48
2023/11/02 11:15:11;;;;;;;14.13;2.80;;;;;;;19.06;91.42;96943.34;4981535;28;20947;-41
2023/11/02 11:17:42;;;;;;;11.90;2.88;;;;;;;19.02;91.75;96937.81;4983625;28;20030;-41
2023/11/02 11:20:09;;;;;;;14.43;3.22;;;;;;;19.02;91.43;96939.78;5001342;28;20601;-46
2023/11/02 11:22:35;;;;;;;15.18;3.13;;;;;;;18.99;91.22;96938.56;4984899;28;20113;-49
2023/11/02 11:25:05;;;;;;;8.63;2.90;;;;;;;18.97;90.81;96913.47;4984265;28;20426;-50
2023/11/02 11:27:32;;;;;;;9.95;3.13;;;;;;;18.97;91.58;96909.94;4981481;28;20029;-50
2023/11/02 11:29:58;;;;;;;20.58;3.28;;;;;;;18.95;91.71;96928.75;4987891;28;20257;-49
2023/11/02 11:32:24;;;;;;;14.25;3.33;;;;;;;18.97;92.44;96921.72;4983364;28;20038;-50
2023/11/02 11:34:55;;;;;;;10.63;3.28;;;;;;;19.01;92.68;96908.81;4984492;28;20402;-47
2023/11/02 11:37:56;;;;;;;10.98;3.38;;;;;;;19.08;92.31;96919.06;4988162;28;20030;-46
2023/11/02 11:40:23;;;;;;;10.10;2.90;;;;;;;19.16;92.04;96906.19;4986288;28;20037;-46
2023/11/02 11:42:51;;;;;;;13.32;3.33;;;;;;;19.23;91.35;96922.72;4986368;28;20038;-46
2023/11/02 11:45:27;;;;;;;10.18;3.20;;;;;;;19.32;90.92;96925.91;5016119;28;20031;-51
2023/11/02 11:47:53;;;;;;;8.90;2.97;;;;;;;19.42;90.61;96934.63;4984699;28;20534;-50